sensor_id;sensor_type;location;lat;lon;timestamp;pressure;altitude;pressure_sealevel;temperature;humidity
74544;BME280;63016;55.030;38.710;2024-02-23T00:01:28;100477.81;;;-0.63;60.59
74544;BME280;63016;55.030;38.710;2024-02-23T00:03:54;100472.84;;;-0.66;60.88
74544;BME280;63016;55.030;38.710;2024-02-23T00:06:20;100422.28;;;-0.95;60.66
74544;BME280;63016;55.030;38.710;2024-02-23T00:08:48;100476.22;;;-0.65;61.12
74544;BME280;63016;55.030;38.710;2024-02-23T00:11:13;100471.91;;;-0.65;61.01
74544;BME280;63016;55.030;38.710;2024-02-23T00:13:39;100458.94;;;-0.62;61.48
74544;BME280;63016;55.030;38.710;2024-02-23T00:16:04;100461.44;;;-0.60;61.13
74544;BME280;63016;55.030;38.710;2024-02-23T00:18:30;100458.28;;;-0.65;61.10
74544;BME280;63016;55.030;38.710;2024-02-23T00:20:56;100462.25;;;-0.60;61.05
74544;BME280;63016;55.030;38.710;2024-02-23T00:23:21;100448.84;;;-0.65;60.70
74544;BME280;63016;55.030;38.710;2024-02-23T00:25:47;100460.50;;;-0.59;61.37
74544;BME280;63016;55.030;38.710;2024-02-23T00:28:13;100464.72;;;-0.58;61.68
74544;BME280;63016;55.030;38.710;2024-02-23T00:30:39;100462.16;;;-0.58;61.79
74544;BME280;63016;55.030;38.710;2024-02-23T00:33:04;100448.03;;;-0.65;60.85
74544;BME280;63016;55.030;38.710;2024-02-23T00:35:30;100457.81;;;-0.56;61.18
74544;BME280;63016;55.030;38.710;2024-02-23T00:37:56;100460.22;;;-0.53;61.10
74544;BME280;63016;55.030;38.710;2024-02-23T00:40:21;100444.41;;;-0.61;61.55
74544;BME280;63016;55.030;38.710;2024-02-23T00:42:48;100457.66;;;-0.53;61.36
74544;BME280;63016;55.030;38.710;2024-02-23T00:45:14;100459.34;;;-0.54;61.45
74544;BME280;63016;55.030;38.710;2024-02-23T00:47:39;100459.44;;;-0.55;61.24
74544;BME280;63016;55.030;38.710;2024-02-23T00:50:05;100471.34;;;-0.54;60.94
74544;BME280;63016;55.030;38.710;2024-02-23T00:52:31;100462.09;;;-0.57;61.00
74544;BME280;63016;55.030;38.710;2024-02-23T00:54:57;100459.78;;;-0.61;61.19
74544;BME280;63016;55.030;38.710;2024-02-23T00:57:23;100460.44;;;-0.58;61.20
74544;BME280;63016;55.030;38.710;2024-02-23T00:59:57;100471.53;;;-0.57;60.61
74544;BME280;63016;55.030;38.710;2024-02-23T01:02:23;100466.41;;;-0.57;61.52
74544;BME280;63016;55.030;38.710;2024-02-23T01:04:48;100471.53;;;-0.57;61.10
74544;BME280;63016;55.030;38.710;2024-02-23T01:07:14;100469.03;;;-0.59;61.09
74544;BME280;63016;55.030;38.710;2024-02-23T01:09:39;100449.00;;;-0.68;61.50
74544;BME280;63016;55.030;38.710;2024-02-23T01:12:05;100471.34;;;-0.54;60.84
74544;BME280;63016;55.030;38.710;2024-02-23T01:14:31;100455.88;;;-0.68;60.77
74544;BME280;63016;55.030;38.710;2024-02-23T01:16:57;100438.41;;;-0.78;61.33
74544;BME280;63016;55.030;38.710;2024-02-23T01:19:22;100467.28;;;-0.58;61.24
74544;BME280;63016;55.030;38.710;2024-02-23T01:21:49;100468.06;;;-0.56;61.18
74544;BME280;63016;55.030;38.710;2024-02-23T01:24:20;100472.25;;;-0.55;61.69
74544;BME280;63016;55.030;38.710;2024-02-23T01:26:46;100460.94;;;-0.67;60.58
74544;BME280;63016;55.030;38.710;2024-02-23T01:29:11;100472.69;;;-0.63;61.39
74544;BME280;63016;55.030;38.710;2024-02-23T01:31:37;100476.56;;;-0.56;61.39
74544;BME280;63016;55.030;38.710;2024-02-23T01:34:03;100468.06;;;-0.56;61.26
74544;BME280;63016;55.030;38.710;2024-02-23T01:36:28;100461.28;;;-0.57;61.22
74544;BME280;63016;55.030;38.710;2024-02-23T01:38:54;100462.78;;;-0.53;61.56
74544;BME280;63016;55.030;38.710;2024-02-23T01:41:20;100463.06;;;-0.59;61.07
74544;BME280;63016;55.030;38.710;2024-02-23T01:43:45;100464.47;;;-0.54;61.57
74544;BME280;63016;55.030;38.710;2024-02-23T01:46:11;100453.00;;;-0.62;61.55
74544;BME280;63016;55.030;38.710;2024-02-23T01:48:37;100472.25;;;-0.55;61.62
74544;BME280;63016;55.030;38.710;2024-02-23T01:51:03;100476.47;;;-0.54;61.73
74544;BME280;63016;55.030;38.710;2024-02-23T01:53:28;100462.94;;;-0.56;60.99
74544;BME280;63016;55.030;38.710;2024-02-23T01:55:54;100474.81;;;-0.55;61.69
74544;BME280;63016;55.030;38.710;2024-02-23T01:58:21;100446.19;;;-0.63;60.80
74544;BME280;63016;55.030;38.710;2024-02-23T02:00:46;100464.47;;;-0.54;61.85
74544;BME280;63016;55.030;38.710;2024-02-23T02:03:12;100466.06;;;-0.51;61.45
74544;BME280;63016;55.030;38.710;2024-02-23T02:05:38;100456.78;;;-0.54;61.38
74544;BME280;63016;55.030;38.710;2024-02-23T02:08:04;100460.28;;;-0.55;61.26
74544;BME280;63016;55.030;38.710;2024-02-23T02:10:30;100462.09;;;-0.57;61.06
74544;BME280;63016;55.030;38.710;2024-02-23T02:12:55;100447.06;;;-0.63;61.84
74544;BME280;63016;55.030;38.710;2024-02-23T02:15:26;100458.53;;;-0.54;61.60
74544;BME280;63016;55.030;38.710;2024-02-23T02:17:52;100446.06;;;-0.60;61.40
74544;BME280;63016;55.030;38.710;2024-02-23T02:20:18;100461.03;;;-0.53;61.55
74544;BME280;63016;55.030;38.710;2024-02-23T02:22:44;100455.09;;;-0.53;61.55
74544;BME280;63016;55.030;38.710;2024-02-23T02:25:09;100471.94;;;-0.49;61.43
74544;BME280;63016;55.030;38.710;2024-02-23T02:27:35;100465.16;;;-0.50;61.46
74544;BME280;63016;55.030;38.710;2024-02-23T02:30:01;100467.00;;;-0.52;60.99
74544;BME280;63016;55.030;38.710;2024-02-23T02:32:26;100460.75;;;-0.64;60.86
74544;BME280;63016;55.030;38.710;2024-02-23T02:34:52;100480.97;;;-0.58;61.32
74544;BME280;63016;55.030;38.710;2024-02-23T02:37:17;100484.41;;;-0.59;60.64
74544;BME280;63016;55.030;38.710;2024-02-23T02:39:43;100487.97;;;-0.61;61.19
74544;BME280;63016;55.030;38.710;2024-02-23T02:42:09;100492.28;;;-0.62;61.43
74544;BME280;63016;55.030;38.710;2024-02-23T02:44:34;100454.78;;;-0.80;61.69
74544;BME280;63016;55.030;38.710;2024-02-23T02:47:00;100491.34;;;-0.61;61.51
74544;BME280;63016;55.030;38.710;2024-02-23T02:49:26;100487.88;;;-0.60;61.53
74544;BME280;63016;55.030;38.710;2024-02-23T02:51:51;100486.09;;;-0.58;60.84
74544;BME280;63016;55.030;38.710;2024-02-23T02:54:17;100474.56;;;-0.66;61.29
74544;BME280;63016;55.030;38.710;2024-02-23T02:56:43;100486.09;;;-0.58;60.91
74544;BME280;63016;55.030;38.710;2024-02-23T02:59:11;100487.06;;;-0.60;61.13
74544;BME280;63016;55.030;38.710;2024-02-23T03:01:36;100469.69;;;-0.71;61.42
74544;BME280;63016;55.030;38.710;2024-02-23T03:04:01;100480.97;;;-0.58;61.13
74544;BME280;63016;55.030;38.710;2024-02-23T03:06:27;100485.22;;;-0.58;61.50
74544;BME280;63016;55.030;38.710;2024-02-23T03:08:53;100472.00;;;-0.66;61.24
74544;BME280;63016;55.030;38.710;2024-02-23T03:11:18;100480.28;;;-0.61;61.03
74544;BME280;63016;55.030;38.710;2024-02-23T03:13:43;100489.47;;;-0.57;61.39
74544;BME280;63016;55.030;38.710;2024-02-23T03:16:17;100483.56;;;-0.59;61.77
74544;BME280;63016;55.030;38.710;2024-02-23T03:18:43;100494.59;;;-0.57;61.59
74544;BME280;63016;55.030;38.710;2024-02-23T03:21:09;100492.41;;;-0.65;61.54
74544;BME280;63016;55.030;38.710;2024-02-23T03:23:35;100492.41;;;-0.65;62.03
74544;BME280;63016;55.030;38.710;2024-02-23T03:26:01;100499.63;;;-0.56;61.98
74544;BME280;63016;55.030;38.710;2024-02-23T03:28:27;100515.69;;;-0.52;61.85
74544;BME280;63016;55.030;38.710;2024-02-23T03:30:53;100509.66;;;-0.51;61.09
74544;BME280;63016;55.030;38.710;2024-02-23T03:33:18;100485.41;;;-0.61;61.03
74544;BME280;63016;55.030;38.710;2024-02-23T03:35:44;100510.56;;;-0.52;61.12
74544;BME280;63016;55.030;38.710;2024-02-23T03:38:09;100498.97;;;-0.59;61.69
74544;BME280;63016;55.030;38.710;2024-02-23T03:40:35;100508.00;;;-0.52;61.70
74544;BME280;63016;55.030;38.710;2024-02-23T03:43:01;100493.84;;;-0.59;60.67
74544;BME280;63016;55.030;38.710;2024-02-23T03:45:27;100499.78;;;-0.59;61.31
74544;BME280;63016;55.030;38.710;2024-02-23T03:47:53;100480.66;;;-0.69;61.53
74544;BME280;63016;55.030;38.710;2024-02-23T03:50:18;100495.66;;;-0.61;60.88
74544;BME280;63016;55.030;38.710;2024-02-23T03:52:44;100503.34;;;-0.61;60.72
74544;BME280;63016;55.030;38.710;2024-02-23T03:55:10;100509.63;;;-0.67;61.03
74544;BME280;63016;55.030;38.710;2024-02-23T03:57:35;100523.31;;;-0.68;60.89
74544;BME280;63016;55.030;38.710;2024-02-23T04:00:01;100500.56;;;-0.74;61.51
74544;BME280;63016;55.030;38.710;2024-02-23T04:02:27;100530.78;;;-0.63;61.59
74544;BME280;63016;55.030;38.710;2024-02-23T04:04:53;100525.66;;;-0.63;61.54
74544;BME280;63016;55.030;38.710;2024-02-23T04:07:19;100518.13;;;-0.66;61.73
74544;BME280;63016;55.030;38.710;2024-02-23T04:09:45;100524.75;;;-0.62;61.01
74544;BME280;63016;55.030;38.710;2024-02-23T04:12:10;100523.09;;;-0.63;62.09
74544;BME280;63016;55.030;38.710;2024-02-23T04:14:36;100521.38;;;-0.63;61.64
74544;BME280;63016;55.030;38.710;2024-02-23T04:17:04;100519.63;;;-0.62;61.57
74544;BME280;63016;55.030;38.710;2024-02-23T04:19:30;100527.31;;;-0.62;61.39
74544;BME280;63016;55.030;38.710;2024-02-23T04:21:56;100542.69;;;-0.62;61.06
74544;BME280;63016;55.030;38.710;2024-02-23T04:24:21;100534.00;;;-0.60;61.40
74544;BME280;63016;55.030;38.710;2024-02-23T04:26:47;100539.97;;;-0.59;61.55
74544;BME280;63016;55.030;38.710;2024-02-23T04:29:12;100538.31;;;-0.60;60.93
74544;BME280;63016;55.030;38.710;2024-02-23T04:31:38;100529.81;;;-0.61;61.37
74544;BME280;63016;55.030;38.710;2024-02-23T04:34:03;100520.94;;;-0.71;60.84
74544;BME280;63016;55.030;38.710;2024-02-23T04:36:29;100524.91;;;-0.65;61.62
74544;BME280;63016;55.030;38.710;2024-02-23T04:38:55;100535.00;;;-0.62;61.59
74544;BME280;63016;55.030;38.710;2024-02-23T04:41:20;100528.97;;;-0.61;61.43
74544;BME280;63016;55.030;38.710;2024-02-23T04:43:50;100518.47;;;-0.72;61.57
74544;BME280;63016;55.030;38.710;2024-02-23T04:46:15;100541.78;;;-0.61;61.98
74544;BME280;63016;55.030;38.710;2024-02-23T04:48:41;100505.19;;;-0.81;61.69
74544;BME280;63016;55.030;38.710;2024-02-23T04:51:07;100537.50;;;-0.61;61.41
74544;BME280;63016;55.030;38.710;2024-02-23T04:53:38;100539.22;;;-0.61;61.83
74544;BME280;63016;55.030;38.710;2024-02-23T04:56:04;100512.78;;;-0.79;61.62
74544;BME280;63016;55.030;38.710;2024-02-23T04:58:30;100565.44;;;-0.56;62.19
74544;BME280;63016;55.030;38.710;2024-02-23T05:00:55;100545.09;;;-0.59;62.09
74544;BME280;63016;55.030;38.710;2024-02-23T05:03:21;100547.41;;;-0.55;62.15
74544;BME280;63016;55.030;38.710;2024-02-23T05:05:46;100553.22;;;-0.51;61.62
74544;BME280;63016;55.030;38.710;2024-02-23T05:08:13;100550.50;;;-0.48;61.46
74544;BME280;63016;55.030;38.710;2024-02-23T05:10:38;100548.91;;;-0.50;61.69
74544;BME280;63016;55.030;38.710;2024-02-23T05:13:04;100541.47;;;-0.55;61.93
74544;BME280;63016;55.030;38.710;2024-02-23T05:15:30;100525.59;;;-0.62;61.29
74544;BME280;63016;55.030;38.710;2024-02-23T05:17:55;100550.28;;;-0.43;61.23
74544;BME280;63016;55.030;38.710;2024-02-23T05:20:21;100550.44;;;-0.46;61.47
74544;BME280;63016;55.030;38.710;2024-02-23T05:22:47;100553.50;;;-0.40;61.35
74544;BME280;63016;55.030;38.710;2024-02-23T05:25:13;100562.81;;;-0.39;61.94
74544;BME280;63016;55.030;38.710;2024-02-23T05:27:39;100556.97;;;-0.41;61.56
74544;BME280;63016;55.030;38.710;2024-02-23T05:30:05;100550.28;;;-0.43;61.97
74544;BME280;63016;55.030;38.710;2024-02-23T05:32:32;100563.75;;;-0.40;61.40
74544;BME280;63016;55.030;38.710;2024-02-23T05:34:57;100544.78;;;-0.53;61.53
74544;BME280;63016;55.030;38.710;2024-02-23T05:37:23;100552.66;;;-0.40;61.08
74544;BME280;63016;55.030;38.710;2024-02-23T05:39:49;100559.63;;;-0.42;61.50
74544;BME280;63016;55.030;38.710;2024-02-23T05:42:14;100557.88;;;-0.42;61.61
74544;BME280;63016;55.030;38.710;2024-02-23T05:44:43;100570.59;;;-0.40;61.56
74544;BME280;63016;55.030;38.710;2024-02-23T05:47:08;100571.28;;;-0.37;62.17
74544;BME280;63016;55.030;38.710;2024-02-23T05:49:35;100564.34;;;-0.35;61.55
74544;BME280;63016;55.030;38.710;2024-02-23T05:52:00;100551.44;;;-0.33;61.63
74544;BME280;63016;55.030;38.710;2024-02-23T05:54:26;100558.22;;;-0.32;61.86
74544;BME280;63016;55.030;38.710;2024-02-23T05:56:51;100552.09;;;-0.30;61.69
74544;BME280;63016;55.030;38.710;2024-02-23T05:59:17;100544.66;;;-0.34;61.53
74544;BME280;63016;55.030;38.710;2024-02-23T06:01:42;100549.47;;;-0.28;61.59
74544;BME280;63016;55.030;38.710;2024-02-23T06:04:09;100552.69;;;-0.24;61.85
74544;BME280;63016;55.030;38.710;2024-02-23T06:06:34;100553.53;;;-0.24;61.52
74544;BME280;63016;55.030;38.710;2024-02-23T06:09:00;100566.03;;;-0.18;62.24
74544;BME280;63016;55.030;38.710;2024-02-23T06:11:25;100573.53;;;-0.15;62.59
74544;BME280;63016;55.030;38.710;2024-02-23T06:13:51;100567.53;;;-0.14;62.18
74544;BME280;63016;55.030;38.710;2024-02-23T06:16:17;100580.13;;;-0.09;62.03
74544;BME280;63016;55.030;38.710;2024-02-23T06:18:42;100570.00;;;-0.12;62.45
74544;BME280;63016;55.030;38.710;2024-02-23T06:21:15;100583.75;;;0.03;62.47
74544;BME280;63016;55.030;38.710;2024-02-23T06:23:41;100574.50;;;0.00;62.44
74544;BME280;63016;55.030;38.710;2024-02-23T06:26:07;100573.25;;;0.07;62.06
74544;BME280;63016;55.030;38.710;2024-02-23T06:28:33;100576.50;;;0.11;62.53
74544;BME280;63016;55.030;38.710;2024-02-23T06:30:58;100577.56;;;0.07;61.74
74544;BME280;63016;55.030;38.710;2024-02-23T06:33:24;100590.72;;;0.16;62.10
74544;BME280;63016;55.030;38.710;2024-02-23T06:35:50;100581.38;;;0.15;62.01
74544;BME280;63016;55.030;38.710;2024-02-23T06:38:17;100587.25;;;0.17;61.57
74544;BME280;63016;55.030;38.710;2024-02-23T06:40:43;100599.97;;;0.19;62.42
74544;BME280;63016;55.030;38.710;2024-02-23T06:43:08;100593.06;;;0.21;62.01
74544;BME280;63016;55.030;38.710;2024-02-23T06:45:34;100593.06;;;0.21;62.15
74544;BME280;63016;55.030;38.710;2024-02-23T06:47:59;100600.66;;;0.22;62.02
74544;BME280;63016;55.030;38.710;2024-02-23T06:50:25;100589.22;;;0.12;61.87
74544;BME280;63016;55.030;38.710;2024-02-23T06:52:51;100593.44;;;0.13;62.27
74544;BME280;63016;55.030;38.710;2024-02-23T06:55:16;100602.66;;;0.17;61.93
74544;BME280;63016;55.030;38.710;2024-02-23T06:57:42;100596.69;;;0.17;61.90
74544;BME280;63016;55.030;38.710;2024-02-23T07:00:09;100610.78;;;0.25;62.49
74544;BME280;63016;55.030;38.710;2024-02-23T07:02:34;100601.91;;;0.31;62.63
74544;BME280;63016;55.030;38.710;2024-02-23T07:05:02;100596.09;;;0.28;62.08
74544;BME280;63016;55.030;38.710;2024-02-23T07:07:32;100605.78;;;0.38;62.34
74544;BME280;63016;55.030;38.710;2024-02-23T07:09:59;100599.81;;;0.38;62.50
74544;BME280;63016;55.030;38.710;2024-02-23T07:12:25;100606.13;;;0.48;62.83
74544;BME280;63016;55.030;38.710;2024-02-23T07:14:53;100593.38;;;0.46;62.64
74544;BME280;63016;55.030;38.710;2024-02-23T07:17:19;100603.03;;;0.57;62.57
74544;BME280;63016;55.030;38.710;2024-02-23T07:19:44;100597.91;;;0.57;62.36
74544;BME280;63016;55.030;38.710;2024-02-23T07:22:10;100615.31;;;0.68;62.49
74544;BME280;63016;55.030;38.710;2024-02-23T07:24:40;100619.84;;;0.79;62.94
74544;BME280;63016;55.030;38.710;2024-02-23T07:27:06;100612.88;;;0.81;63.26
74544;BME280;63016;55.030;38.710;2024-02-23T07:29:31;100616.13;;;0.84;62.88
74544;BME280;63016;55.030;38.710;2024-02-23T07:31:57;100614.22;;;0.88;62.39
74544;BME280;63016;55.030;38.710;2024-02-23T07:34:22;100619.25;;;0.89;62.96
74544;BME280;63016;55.030;38.710;2024-02-23T07:36:51;100624.97;;;0.94;62.43
74544;BME280;63016;55.030;38.710;2024-02-23T07:39:16;100619.97;;;0.91;62.53
74544;BME280;63016;55.030;38.710;2024-02-23T07:41:42;100620.75;;;0.93;62.47
74544;BME280;63016;55.030;38.710;2024-02-23T07:44:07;100611.38;;;0.92;62.44
74544;BME280;63016;55.030;38.710;2024-02-23T07:46:33;100613.44;;;0.86;62.10
74544;BME280;63016;55.030;38.710;2024-02-23T07:48:58;100620.91;;;0.90;61.99
74544;BME280;63016;55.030;38.710;2024-02-23T07:51:24;100615.09;;;0.87;62.00
74544;BME280;63016;55.030;38.710;2024-02-23T07:53:49;100626.59;;;0.95;62.63
74544;BME280;63016;55.030;38.710;2024-02-23T07:56:15;100615.50;;;0.95;62.58
74544;BME280;63016;55.030;38.710;2024-02-23T07:58:40;100624.13;;;0.94;62.04
74544;BME280;63016;55.030;38.710;2024-02-23T08:01:06;100611.38;;;0.92;62.14
74544;BME280;63016;55.030;38.710;2024-02-23T08:03:31;100614.78;;;0.93;62.56
74544;BME280;63016;55.030;38.710;2024-02-23T08:05:57;100640.34;;;1.10;62.42
74544;BME280;63016;55.030;38.710;2024-02-23T08:08:22;100641.81;;;1.14;62.24
74544;BME280;63016;55.030;38.710;2024-02-23T08:10:50;100611.13;;;0.97;62.84
74544;BME280;63016;55.030;38.710;2024-02-23T08:13:15;100630.63;;;1.15;62.96
74544;BME280;63016;55.030;38.710;2024-02-23T08:15:43;100620.56;;;1.26;62.82
74544;BME280;63016;55.030;38.710;2024-02-23T08:18:08;100644.91;;;1.35;62.32
74544;BME280;63016;55.030;38.710;2024-02-23T08:20:34;100640.25;;;1.42;62.50
74544;BME280;63016;55.030;38.710;2024-02-23T08:22:59;100643.47;;;1.45;63.02
74544;BME280;63016;55.030;38.710;2024-02-23T08:25:25;100624.63;;;1.45;63.46
74544;BME280;63016;55.030;38.710;2024-02-23T08:27:53;100638.38;;;1.60;62.77
74544;BME280;63016;55.030;38.710;2024-02-23T08:30:19;100634.50;;;1.67;63.02
74544;BME280;63016;55.030;38.710;2024-02-23T08:32:45;100638.56;;;1.71;62.85
74544;BME280;63016;55.030;38.710;2024-02-23T08:35:11;100649.50;;;1.74;62.40
74544;BME280;63016;55.030;38.710;2024-02-23T08:37:37;100650.94;;;1.78;62.63
74544;BME280;63016;55.030;38.710;2024-02-23T08:40:02;100646.56;;;1.80;62.63
74544;BME280;63016;55.030;38.710;2024-02-23T08:42:28;100638.84;;;1.80;62.40
74544;BME280;63016;55.030;38.710;2024-02-23T08:44:54;100639.75;;;1.79;62.24
74544;BME280;63016;55.030;38.710;2024-02-23T08:47:19;100649.69;;;1.86;62.44
74544;BME280;63016;55.030;38.710;2024-02-23T08:49:45;100647.00;;;1.87;62.31
74544;BME280;63016;55.030;38.710;2024-02-23T08:52:11;100655.75;;;1.85;62.50
74544;BME280;63016;55.030;38.710;2024-02-23T08:54:37;100658.13;;;1.88;62.11
74544;BME280;63016;55.030;38.710;2024-02-23T08:57:04;100663.91;;;1.91;62.75
74544;BME280;63016;55.030;38.710;2024-02-23T08:59:30;100654.44;;;1.92;62.51
74544;BME280;63016;55.030;38.710;2024-02-23T09:01:55;100662.06;;;1.93;62.76
74544;BME280;63016;55.030;38.710;2024-02-23T09:04:21;100648.47;;;1.91;62.54
74544;BME280;63016;55.030;38.710;2024-02-23T09:06:46;100653.09;;;2.00;62.81
74544;BME280;63016;55.030;38.710;2024-02-23T09:09:14;100662.06;;;2.08;62.73
74544;BME280;63016;55.030;38.710;2024-02-23T09:11:39;100661.81;;;2.12;62.47
74544;BME280;63016;55.030;38.710;2024-02-23T09:14:24;100667.44;;;2.19;63.02
74544;BME280;63016;55.030;38.710;2024-02-23T09:16:51;100676.53;;;2.24;62.98
74544;BME280;63016;55.030;38.710;2024-02-23T09:19:17;100661.06;;;2.24;62.86
74544;BME280;63016;55.030;38.710;2024-02-23T09:21:42;100673.47;;;2.32;62.74
74544;BME280;63016;55.030;38.710;2024-02-23T09:24:08;100673.28;;;2.35;62.87
74544;BME280;63016;55.030;38.710;2024-02-23T09:26:33;100675.75;;;2.37;62.60
74544;BME280;63016;55.030;38.710;2024-02-23T09:28:59;100665.84;;;2.30;62.67
74544;BME280;63016;55.030;38.710;2024-02-23T09:31:25;100683.19;;;2.41;62.49
74544;BME280;63016;55.030;38.710;2024-02-23T09:33:51;100665.47;;;2.37;62.70
74544;BME280;63016;55.030;38.710;2024-02-23T09:36:17;100684.50;;;2.48;62.75
74544;BME280;63016;55.030;38.710;2024-02-23T09:38:43;100663.44;;;2.42;62.33
74544;BME280;63016;55.030;38.710;2024-02-23T09:41:19;100672.34;;;2.50;62.51
74544;BME280;63016;55.030;38.710;2024-02-23T09:43:47;100681.25;;;2.59;62.72
74544;BME280;63016;55.030;38.710;2024-02-23T09:46:15;100680.88;;;2.65;63.07
74544;BME280;63016;55.030;38.710;2024-02-23T09:48:45;100694.22;;;2.72;63.25
74544;BME280;63016;55.030;38.710;2024-02-23T09:51:14;100690.81;;;2.71;62.84
74544;BME280;63016;55.030;38.710;2024-02-23T09:53:41;100696.50;;;2.76;62.37
74544;BME280;63016;55.030;38.710;2024-02-23T09:56:08;100694.75;;;2.77;62.73
74544;BME280;63016;55.030;38.710;2024-02-23T09:58:35;100701.38;;;2.81;62.87
74544;BME280;63016;55.030;38.710;2024-02-23T10:01:02;100698.50;;;2.86;62.99
74544;BME280;63016;55.030;38.710;2024-02-23T10:03:29;100699.75;;;2.93;62.71
74544;BME280;63016;55.030;38.710;2024-02-23T10:05:58;100702.16;;;2.96;63.03
74544;BME280;63016;55.030;38.710;2024-02-23T10:08:27;100702.59;;;3.02;62.88
74544;BME280;63016;55.030;38.710;2024-02-23T10:10:54;100698.78;;;3.08;62.63
74544;BME280;63016;55.030;38.710;2024-02-23T10:13:20;100697.84;;;3.09;62.94
74544;BME280;63016;55.030;38.710;2024-02-23T10:15:52;100698.72;;;3.09;62.51
74544;BME280;63016;55.030;38.710;2024-02-23T10:18:19;100714.78;;;3.13;62.41
74544;BME280;63016;55.030;38.710;2024-02-23T10:20:46;100714.78;;;3.13;62.71
74544;BME280;63016;55.030;38.710;2024-02-23T10:25:55;100703.66;;;3.13;62.51
74544;BME280;63016;55.030;38.710;2024-02-23T10:28:21;100697.84;;;3.09;62.67
74544;BME280;63016;55.030;38.710;2024-02-23T10:30:48;100716.25;;;3.17;62.66
74544;BME280;63016;55.030;38.710;2024-02-23T10:33:14;100721.41;;;3.17;61.99
74544;BME280;63016;55.030;38.710;2024-02-23T10:35:40;100711.69;;;3.08;61.98
74544;BME280;63016;55.030;38.710;2024-02-23T10:38:09;100685.75;;;2.97;62.70
74544;BME280;63016;55.030;38.710;2024-02-23T10:40:39;100705.41;;;3.12;62.84
74544;BME280;63016;55.030;38.710;2024-02-23T10:43:12;100708.34;;;3.20;62.64
74544;BME280;63016;55.030;38.710;2024-02-23T10:45:39;100713.28;;;3.23;62.45
74544;BME280;63016;55.030;38.710;2024-02-23T10:48:08;100711.44;;;3.25;62.54
74544;BME280;63016;55.030;38.710;2024-02-23T10:50:35;100694.91;;;3.15;62.13
74544;BME280;63016;55.030;38.710;2024-02-23T10:53:01;100714.03;;;3.25;62.43
74544;BME280;63016;55.030;38.710;2024-02-23T10:55:31;100719.19;;;3.25;62.68
74544;BME280;63016;55.030;38.710;2024-02-23T10:57:58;100711.22;;;3.28;62.38
74544;BME280;63016;55.030;38.710;2024-02-23T11:00:24;100714.66;;;3.29;62.25
74544;BME280;63016;55.030;38.710;2024-02-23T11:02:52;100723.00;;;3.32;62.70
74544;BME280;63016;55.030;38.710;2024-02-23T11:05:19;100733.13;;;3.35;62.95
74544;BME280;63016;55.030;38.710;2024-02-23T11:07:48;100724.28;;;3.40;62.92
74544;BME280;63016;55.030;38.710;2024-02-23T11:10:17;100737.72;;;3.45;62.44
74544;BME280;63016;55.030;38.710;2024-02-23T11:12:44;100728.09;;;3.47;62.75
74544;BME280;63016;55.030;38.710;2024-02-23T11:15:26;100731.22;;;3.52;63.10
74544;BME280;63016;55.030;38.710;2024-02-23T11:17:51;100729.78;;;3.60;62.79
74544;BME280;63016;55.030;38.710;2024-02-23T11:20:17;100723.63;;;3.63;62.76
74544;BME280;63016;55.030;38.710;2024-02-23T11:22:43;100733.53;;;3.69;63.40
74544;BME280;63016;55.030;38.710;2024-02-23T11:25:09;100731.34;;;3.76;63.48
74544;BME280;63016;55.030;38.710;2024-02-23T11:27:38;100741.28;;;3.82;62.98
74544;BME280;63016;55.030;38.710;2024-02-23T11:30:10;100737.88;;;3.81;62.73
74544;BME280;63016;55.030;38.710;2024-02-23T11:35:06;100731.06;;;3.80;63.34
74544;BME280;63016;55.030;38.710;2024-02-23T11:37:32;100747.09;;;3.98;62.93
74544;BME280;63016;55.030;38.710;2024-02-23T11:40:00;100763.94;;;4.04;62.90
74544;BME280;63016;55.030;38.710;2024-02-23T11:42:27;100760.63;;;4.02;62.78
74544;BME280;63016;55.030;38.710;2024-02-23T11:44:54;100755.66;;;3.99;62.33
74544;BME280;63016;55.030;38.710;2024-02-23T11:47:21;100751.00;;;4.04;62.87
74544;BME280;63016;55.030;38.710;2024-02-23T11:49:46;100757.63;;;4.08;62.77
74544;BME280;63016;55.030;38.710;2024-02-23T11:52:12;100759.41;;;4.07;62.80
74544;BME280;63016;55.030;38.710;2024-02-23T11:54:37;100745.22;;;4.00;62.39
74544;BME280;63016;55.030;38.710;2024-02-23T11:57:03;100763.13;;;4.16;62.90
74544;BME280;63016;55.030;38.710;2024-02-23T11:59:47;100766.31;;;4.20;62.45
74544;BME280;63016;55.030;38.710;2024-02-23T12:02:13;100754.63;;;4.14;62.36
74544;BME280;63016;55.030;38.710;2024-02-23T12:04:39;100767.97;;;4.21;62.47
74544;BME280;63016;55.030;38.710;2024-02-23T12:07:04;100749.28;;;4.17;62.75
74544;BME280;63016;55.030;38.710;2024-02-23T12:09:30;100763.94;;;4.17;62.39
74544;BME280;63016;55.030;38.710;2024-02-23T12:11:56;100752.28;;;4.11;62.61
74544;BME280;63016;55.030;38.710;2024-02-23T12:14:21;100771.06;;;4.13;62.44
74544;BME280;63016;55.030;38.710;2024-02-23T12:16:47;100764.34;;;4.10;62.15
74544;BME280;63016;55.030;38.710;2024-02-23T12:19:14;100764.75;;;4.04;62.28
74544;BME280;63016;55.030;38.710;2024-02-23T12:21:40;100784.09;;;4.11;62.40
74544;BME280;63016;55.030;38.710;2024-02-23T12:24:06;100744.81;;;3.94;62.35
74544;BME280;63016;55.030;38.710;2024-02-23T12:26:33;100782.31;;;4.12;62.38
74544;BME280;63016;55.030;38.710;2024-02-23T12:29:02;100783.25;;;4.11;62.12
74544;BME280;63016;55.030;38.710;2024-02-23T12:31:33;100783.56;;;4.19;62.35
74544;BME280;63016;55.030;38.710;2024-02-23T12:34:00;100785.50;;;4.16;62.06
74544;BME280;63016;55.030;38.710;2024-02-23T12:36:25;100786.34;;;4.03;61.72
74544;BME280;63016;55.030;38.710;2024-02-23T12:38:51;100778.19;;;3.97;62.21
74544;BME280;63016;55.030;38.710;2024-02-23T12:41:17;100777.44;;;3.95;62.07
74544;BME280;63016;55.030;38.710;2024-02-23T12:43:42;100772.56;;;3.90;62.17
74544;BME280;63016;55.030;38.710;2024-02-23T12:46:08;100751.72;;;3.80;62.15